Time;durP1;ratioP1;P1;durP2;ratioP2;P2;SDS_P1;SDS_P2;PMS_P1;PMS_P2;Temp;Humidity;BMP_temperature;BMP_pressure;BME280_temperature;BME280_humidity;BME280_pressure;Samples;Min_cycle;Max_cycle;Signal;HPM_P1;HPM_P2
2022/07/05 06:35:52;;;;;;;12.35;2.20;;;;;;;21.72;56.49;99374.16;5128844;27;20341;-79
2022/07/05 06:38:19;;;;;;;4.15;2.17;;;;;;;21.90;54.37;99378.56;5128641;27;20047;-79
2022/07/05 06:40:46;;;;;;;3.42;1.40;;;;;;;22.19;54.12;99372.88;5129025;27;20047;-79
2022/07/05 06:43:14;;;;;;;2.17;1.40;;;;;;;22.68;54.22;99372.97;5117954;27;20129;-79
2022/07/05 06:45:41;;;;;;;2.08;1.20;;;;;;;23.07;53.87;99369.22;5128457;27;20418;-79
2022/07/05 06:48:10;;;;;;;6.70;1.88;;;;;;;23.37;51.63;99365.91;5125889;27;20051;-78
2022/07/05 06:50:38;;;;;;;1.73;1.08;;;;;;;23.36;50.41;99367.00;5128253;27;20508;-79
2022/07/05 06:53:07;;;;;;;2.72;1.23;;;;;;;23.68;48.50;99374.47;5128062;27;20043;-79
2022/07/05 06:55:34;;;;;;;2.07;0.93;;;;;;;23.72;45.21;99372.03;5128399;27;20097;-79
2022/07/05 06:58:03;;;;;;;1.67;1.00;;;;;;;23.67;44.76;99364.50;5128357;27;20047;-78
2022/07/05 07:00:31;;;;;;;2.70;1.30;;;;;;;23.62;45.75;99356.97;5128229;27;20517;-78
2022/07/05 07:02:57;;;;;;;3.15;0.95;;;;;;;23.61;47.13;99373.88;5124330;27;20052;-79
2022/07/05 07:05:24;;;;;;;3.35;1.10;;;;;;;23.82;46.79;99381.25;5126375;27;20043;-79
2022/07/05 07:10:37;;;;;;;2.45;0.90;;;;;;;23.83;46.85;99377.38;5128215;27;20161;-79
2022/07/05 07:13:05;;;;;;;3.83;1.42;;;;;;;24.04;49.14;99371.97;5127405;28;20051;-79
2022/07/05 07:15:33;;;;;;;4.50;1.00;;;;;;;24.27;48.23;99380.97;5120003;27;20044;-79
2022/07/05 07:17:59;;;;;;;4.40;1.35;;;;;;;24.13;46.71;99381.47;5098010;28;20040;-79
2022/07/05 07:20:26;;;;;;;4.88;1.35;;;;;;;24.53;46.39;99390.28;5098113;28;20438;-79
2022/07/05 07:22:53;;;;;;;7.72;1.20;;;;;;;24.50;46.72;99382.47;5106648;28;20424;-79
2022/07/05 07:25:23;;;;;;;7.28;1.45;;;;;;;24.70;46.48;99382.56;5107563;28;20047;-79
2022/07/05 07:27:52;;;;;;;4.00;1.25;;;;;;;24.35;48.36;99389.63;5107080;28;20159;-79
2022/07/05 07:30:20;;;;;;;;;;;;;;;24.71;46.61;99398.16;5107073;28;20553;-78
2022/07/05 07:32:47;;;;;;;7.97;1.55;;;;;;;24.47;46.90;99392.19;5096382;28;19924;-79
2022/07/05 07:35:14;;;;;;;4.60;1.40;;;;;;;24.53;47.29;99387.50;5105694;28;20414;-79
2022/07/05 07:37:41;;;;;;;2.58;0.98;;;;;;;24.76;46.96;99393.72;5106409;28;20062;-79
2022/07/05 07:40:08;;;;;;;5.40;1.48;;;;;;;25.33;46.77;99391.91;5107041;28;20044;-79
2022/07/05 07:42:35;;;;;;;2.72;1.00;;;;;;;25.19;46.41;99372.94;5106373;28;20055;-79
2022/07/05 07:45:04;;;;;;;10.35;1.65;;;;;;;25.31;45.80;99381.06;5105225;28;20036;-79
2022/07/05 07:47:31;;;;;;;1.90;1.13;;;;;;;25.75;46.23;99391.63;5085320;28;20067;-79
2022/07/05 07:49:57;;;;;;;2.83;1.10;;;;;;;25.41;46.21;99395.00;5093589;28;20044;-79
2022/07/05 07:52:24;;;;;;;3.15;1.10;;;;;;;25.53;45.55;99386.34;5092808;28;20458;-79
2022/07/05 07:54:50;;;;;;;3.13;1.20;;;;;;;25.49;45.94;99401.09;5092095;28;20043;-79
2022/07/05 07:57:17;;;;;;;4.72;1.20;;;;;;;25.22;46.40;99386.31;5093431;28;20403;-79
2022/07/05 07:59:43;;;;;;;4.57;2.03;;;;;;;25.07;46.54;99383.50;5084935;28;20056;-79
2022/07/05 08:02:11;;;;;;;2.25;1.35;;;;;;;25.01;47.19;99391.00;5090578;28;20058;-79
2022/07/05 08:04:38;;;;;;;5.35;1.38;;;;;;;25.07;47.57;99394.63;5091511;28;20071;-79
2022/07/05 08:07:05;;;;;;;8.57;1.40;;;;;;;24.94;46.35;99397.94;5093503;28;20060;-80
2022/07/05 08:09:31;;;;;;;9.75;2.30;;;;;;;25.10;46.91;99402.44;5092005;28;20047;-79
2022/07/05 08:11:58;;;;;;;3.92;1.60;;;;;;;24.96;47.04;99390.16;5092666;28;20048;-79
2022/07/05 08:14:25;;;;;;;8.88;1.50;;;;;;;25.09;47.16;99392.41;5082709;28;20036;-79
2022/07/05 08:16:52;;;;;;;4.70;1.38;;;;;;;25.19;43.58;99386.88;5092926;28;20048;-80
2022/07/05 08:22:07;;;;;;;3.15;1.00;;;;;;;25.41;43.18;99391.34;5092333;28;20799;-79
2022/07/05 08:24:34;;;;;;;3.45;1.00;;;;;;;25.53;41.50;99389.13;5092407;28;20520;-79
2022/07/05 08:27:00;;;;;;;3.85;0.85;;;;;;;25.86;40.58;99374.91;5091680;28;20048;-79
2022/07/05 08:29:26;;;;;;;3.15;1.20;;;;;;;26.25;40.59;99386.25;5092935;28;20048;-79
2022/07/05 08:31:53;;;;;;;2.03;1.10;;;;;;;26.17;39.45;99395.22;5090411;28;20056;-79
2022/07/05 08:34:21;;;;;;;3.25;1.10;;;;;;;25.96;39.71;99389.66;5083331;28;20044;-79
2022/07/05 08:36:48;;;;;;;4.15;1.10;;;;;;;25.84;41.44;99393.88;5092442;28;20309;-79
2022/07/05 08:39:15;;;;;;;8.38;1.77;;;;;;;25.79;41.26;99394.69;5092192;28;20048;-79
2022/07/05 08:41:43;;;;;;;9.68;1.10;;;;;;;25.76;41.38;99387.75;5092205;28;20055;-79
2022/07/05 08:44:10;;;;;;;2.28;0.85;;;;;;;25.41;41.75;99392.22;5090787;28;20050;-79
2022/07/05 08:46:39;;;;;;;2.83;0.80;;;;;;;25.49;40.06;99379.69;5091291;28;20040;-79
2022/07/05 08:49:06;;;;;;;3.28;0.80;;;;;;;25.84;41.29;99394.69;5090300;28;20145;-79
2022/07/05 08:51:38;;;;;;;1.13;0.85;;;;;;;26.04;40.07;99376.31;5082067;28;20040;-79
2022/07/05 08:54:06;;;;;;;2.63;1.00;;;;;;;25.95;39.15;99389.94;5082215;28;20048;-79
2022/07/05 08:56:35;;;;;;;2.13;0.85;;;;;;;26.07;42.02;99384.91;5092005;28;20487;-79
2022/07/05 08:59:01;;;;;;;1.63;0.93;;;;;;;25.93;39.24;99393.00;5091313;28;20055;-78
2022/07/05 09:01:31;;;;;;;5.45;0.90;;;;;;;25.99;41.47;99382.72;5090494;28;20044;-79
2022/07/05 09:04:01;;;;;;;;;;;;;;;26.26;40.36;99382.38;5090398;28;20139;-79
2022/07/05 09:06:28;;;;;;;;;;;;;;;26.56;38.61;99386.16;5092680;28;19920;-79
2022/07/05 09:08:56;;;;;;;4.85;0.75;;;;;;;26.50;38.56;99387.31;5091897;28;19919;-79
2022/07/05 09:11:26;;;;;;;4.00;0.80;;;;;;;26.64;39.18;99390.31;5092036;28;20052;-79
2022/07/05 09:13:52;;;;;;;2.83;1.00;;;;;;;26.36;38.22;99375.94;5091553;28;20044;-79
2022/07/05 09:16:19;;;;;;;1.25;0.93;;;;;;;26.45;38.95;99373.38;5082134;28;20048;-78
2022/07/05 09:18:46;;;;;;;3.88;0.98;;;;;;;26.36;39.63;99386.22;5090899;28;20237;-80
2022/07/05 09:21:15;;;;;;;0.85;0.70;;;;;;;26.29;36.76;99373.44;5091374;28;20493;-79
2022/07/05 09:23:42;;;;;;;0.98;0.65;;;;;;;26.40;37.28;99376.19;5091050;28;20053;-78
2022/07/05 09:26:10;;;;;;;4.13;0.70;;;;;;;26.22;38.34;99378.47;5091921;28;20307;-78
2022/07/05 09:28:37;;;;;;;2.22;1.02;;;;;;;26.44;38.61;99380.09;5090546;28;20040;-78
2022/07/05 09:31:04;;;;;;;1.45;0.93;;;;;;;26.13;38.54;99378.22;5083190;28;20052;-79
2022/07/05 09:33:31;;;;;;;2.05;0.65;;;;;;;26.10;38.48;99389.91;5090397;28;20483;-78
2022/07/05 09:35:58;;;;;;;2.00;0.70;;;;;;;26.28;37.39;99384.88;5090600;28;20446;-79
2022/07/05 09:38:26;;;;;;;1.60;0.60;;;;;;;26.25;36.00;99385.44;5090984;28;20040;-79
2022/07/05 09:40:54;;;;;;;1.00;0.70;;;;;;;26.69;36.38;99392.25;5091644;28;20048;-78
2022/07/05 09:43:23;;;;;;;1.73;1.23;;;;;;;26.50;37.11;99385.34;5086453;28;20052;-78
2022/07/05 09:45:54;;;;;;;3.38;0.75;;;;;;;26.61;36.81;99390.88;5086232;28;20564;-79
2022/07/05 09:48:21;;;;;;;1.02;0.70;;;;;;;26.97;36.20;99396.28;5091468;28;20048;-79
2022/07/05 09:50:49;;;;;;;4.70;0.95;;;;;;;27.14;34.88;99391.16;5091103;28;20154;-78
2022/07/05 09:53:16;;;;;;;2.22;0.60;;;;;;;26.83;36.33;99385.78;5088901;28;20052;-78
2022/07/05 09:55:42;;;;;;;0.50;0.50;;;;;;;26.67;34.92;99384.19;5090795;28;20414;-79
2022/07/05 09:58:09;;;;;;;1.17;0.47;;;;;;;26.56;35.34;99379.75;5080262;28;20275;-79
2022/07/05 10:00:36;;;;;;;2.20;0.70;;;;;;;26.66;32.96;99397.31;5090899;28;20044;-78
2022/07/05 10:03:03;;;;;;;1.85;0.73;;;;;;;26.80;35.51;99400.28;5089492;28;20055;-78
2022/07/05 10:05:31;;;;;;;4.72;1.10;;;;;;;26.61;33.36;99388.91;5090946;28;20048;-79
2022/07/05 10:07:59;;;;;;;3.80;0.70;;;;;;;26.55;32.78;99378.91;5091184;28;20051;-79
2022/07/05 10:10:27;;;;;;;1.50;0.55;;;;;;;26.77;33.87;99386.09;5089489;28;20048;-78
2022/07/05 10:12:55;;;;;;;1.27;0.90;;;;;;;27.08;33.52;99377.53;5081095;28;20063;-79
2022/07/05 10:15:24;;;;;;;5.32;0.73;;;;;;;27.20;33.54;99383.59;5090009;28;20055;-79
2022/07/05 10:17:57;;;;;;;1.40;0.60;;;;;;;27.37;32.55;99375.69;5091251;28;20044;-80
2022/07/05 10:20:29;;;;;;;3.50;0.90;;;;;;;27.54;32.60;99371.63;5090827;28;20054;-78
2022/07/05 10:22:56;;;;;;;4.35;0.98;;;;;;;27.76;33.09;99378.69;5090437;28;20131;-79
2022/07/05 10:25:24;;;;;;;2.28;0.73;;;;;;;28.05;32.22;99371.16;5086458;28;20135;-79
2022/07/05 10:27:53;;;;;;;0.60;0.57;;;;;;;27.89;31.37;99364.03;5084379;28;20441;-78
2022/07/05 10:30:20;;;;;;;;;;;;;;;27.92;31.51;99387.75;5091198;28;20059;-79
2022/07/05 10:32:48;;;;;;;3.25;0.88;;;;;;;27.47;32.03;99371.94;5089966;28;20284;-79
2022/07/05 10:35:16;;;;;;;3.53;1.50;;;;;;;27.01;32.26;99363.91;5090533;28;20052;-78
2022/07/05 10:37:44;;;;;;;3.00;0.75;;;;;;;27.13;32.70;99383.91;5090771;28;20343;-79
2022/07/05 10:40:12;;;;;;;2.75;0.60;;;;;;;27.24;32.14;99381.06;5081326;28;20049;-78
2022/07/05 10:42:41;;;;;;;3.90;0.90;;;;;;;27.30;30.30;99363.97;5089682;28;20056;-79
2022/07/05 10:45:27;;;;;;;4.90;1.00;;;;;;;27.73;31.36;99382.88;5089282;28;20047;-79
2022/07/05 10:48:19;;;;;;;1.48;0.45;;;;;;;27.90;29.56;99362.91;5090479;28;20051;-79
2022/07/05 10:50:49;;;;;;;2.55;0.60;;;;;;;28.07;29.24;99387.63;5074998;28;20406;-80
2022/07/05 10:53:18;;;;;;;3.58;0.60;;;;;;;28.16;29.55;99380.25;5088978;28;20057;-80
2022/07/05 10:55:49;;;;;;;0.70;0.55;;;;;;;27.87;28.43;99372.72;5074376;28;20056;-78
2022/07/05 10:58:24;;;;;;;1.05;0.50;;;;;;;28.33;29.71;99368.59;5082063;28;20059;-79
2022/07/05 11:01:23;;;;;;;0.75;0.57;;;;;;;28.48;28.23;99372.34;5090541;28;20059;-79
2022/07/05 11:03:55;;;;;;;;;;;;;;;28.53;29.63;99378.72;5083876;28;20048;-79
2022/07/05 11:06:25;;;;;;;0.88;0.43;;;;;;;28.58;30.46;99373.03;5090154;28;19920;-80
2022/07/05 11:09:10;;;;;;;;;;;;;;;28.80;28.93;99374.47;5089198;28;20074;-79
2022/07/05 11:11:39;;;;;;;2.78;0.60;;;;;;;28.64;29.52;99359.88;5083510;28;20140;-78
2022/07/05 11:14:47;;;;;;;4.70;0.70;;;;;;;28.85;28.32;99357.59;5089596;28;20399;-78
2022/07/05 11:17:30;;;;;;;1.15;0.65;;;;;;;29.17;29.05;99374.78;5086562;28;20052;-79
2022/07/05 11:20:12;;;;;;;1.60;0.60;;;;;;;29.22;29.28;99391.50;5090652;28;20054;-79
2022/07/05 11:22:42;;;;;;;3.17;0.70;;;;;;;28.15;29.87;99374.97;5091173;28;20044;-79
2022/07/05 11:25:11;;;;;;;0.80;0.47;;;;;;;27.64;31.24;99376.28;5093855;28;20418;-78
2022/07/05 11:28:05;;;;;;;2.05;0.70;;;;;;;27.75;30.70;99360.25;5093894;28;20510;-79
2022/07/05 11:30:45;;;;;;;3.22;1.05;;;;;;;28.20;29.18;99367.38;5093941;28;20051;-79
2022/07/05 11:33:30;;;;;;;1.70;0.65;;;;;;;28.60;31.12;99364.38;5090817;28;20290;-80
2022/07/05 11:35:58;;;;;;;0.70;0.50;;;;;;;28.73;29.58;99360.84;5094067;28;20053;-77
2022/07/05 11:38:25;;;;;;;3.42;1.10;;;;;;;28.99;29.39;99379.25;5093627;28;20056;-78
2022/07/05 11:40:55;;;;;;;1.63;0.80;;;;;;;28.71;28.48;99374.31;5093825;28;20066;-80
2022/07/05 11:43:28;;;;;;;2.85;0.55;;;;;;;28.27;30.33;99363.38;5093054;28;20044;-80
2022/07/05 11:45:59;;;;;;;1.60;0.75;;;;;;;28.35;29.55;99368.28;5092553;28;20121;-79
2022/07/05 11:48:27;;;;;;;1.27;0.65;;;;;;;28.84;29.68;99372.72;5090739;28;20437;-80
2022/07/05 11:50:54;;;;;;;1.55;0.73;;;;;;;29.13;29.33;99368.94;5093621;28;20056;-79
2022/07/05 11:53:29;;;;;;;1.73;0.65;;;;;;;29.17;27.34;99352.38;5093211;28;20128;-79
2022/07/05 11:55:57;;;;;;;4.85;0.65;;;;;;;28.75;29.31;99355.78;5093703;28;20355;-79
2022/07/05 11:58:31;;;;;;;1.45;0.57;;;;;;;29.14;29.22;99349.03;5093312;28;20142;-80
2022/07/05 12:00:57;;;;;;;2.25;0.80;;;;;;;28.96;28.63;99353.50;5092086;28;20431;-79
2022/07/05 12:03:24;;;;;;;1.98;0.70;;;;;;;29.10;28.67;99336.81;5091084;28;20048;-79
2022/07/05 12:05:52;;;;;;;1.20;0.60;;;;;;;29.05;27.92;99362.06;5093490;28;20105;-79
2022/07/05 12:08:22;;;;;;;4.35;1.10;;;;;;;28.62;29.09;99350.09;5093465;28;20052;-80
2022/07/05 12:13:44;;;;;;;2.63;0.60;;;;;;;28.75;27.80;99350.19;5091575;28;20055;-79
2022/07/05 12:16:12;;;;;;;3.85;0.88;;;;;;;29.32;26.14;99340.97;5086907;28;20044;-79
2022/07/05 12:18:51;;;;;;;2.65;0.73;;;;;;;29.10;27.63;99342.41;5092592;28;20048;-80
2022/07/05 12:21:20;;;;;;;0.73;0.60;;;;;;;29.42;28.28;99337.19;5093350;28;20051;-80
2022/07/05 12:23:47;;;;;;;2.45;0.73;;;;;;;29.78;29.66;99309.34;5092034;28;20560;-79
2022/07/05 12:26:16;;;;;;;1.65;0.70;;;;;;;29.81;26.03;99319.97;5092974;28;20502;-79
2022/07/05 12:28:43;;;;;;;0.93;0.45;;;;;;;30.13;26.24;99317.38;5092005;28;20074;-80
2022/07/05 12:31:17;;;;;;;4.70;0.70;;;;;;;30.18;27.28;99326.50;5091779;28;20055;-79
2022/07/05 12:33:43;;;;;;;0.98;0.65;;;;;;;29.52;28.47;99328.56;5091742;28;20145;-81
2022/07/05 12:36:12;;;;;;;0.88;0.65;;;;;;;29.71;28.80;99319.28;5092425;28;20483;-79
2022/07/05 12:38:38;;;;;;;0.82;0.60;;;;;;;29.79;27.63;99322.22;5092549;28;20040;-78
2022/07/05 12:41:05;;;;;;;2.53;0.60;;;;;;;29.73;26.10;99315.03;5092667;28;20510;-80
2022/07/05 12:43:33;;;;;;;4.13;0.98;;;;;;;29.72;27.21;99320.94;5084990;28;20044;-80
2022/07/05 12:46:01;;;;;;;1.35;0.68;;;;;;;29.90;26.63;99336.03;5078771;28;20102;-79
2022/07/05 12:48:32;;;;;;;1.42;0.77;;;;;;;29.85;26.40;99328.56;5087994;28;20490;-79
2022/07/05 12:50:58;;;;;;;1.85;0.70;;;;;;;30.21;26.19;99332.66;5092697;28;20044;-79
2022/07/05 12:58:59;;;;;;;2.40;0.80;;;;;;;30.46;24.63;99311.69;5091665;28;20058;-79
2022/07/05 13:01:28;;;;;;;0.50;0.50;;;;;;;29.58;26.97;99324.53;5071982;28;20053;-79
2022/07/05 13:04:03;;;;;;;1.08;0.80;;;;;;;29.76;27.97;99322.00;5070035;28;20048;-78
2022/07/05 13:06:45;;;;;;;3.05;0.70;;;;;;;29.60;26.01;99327.06;5077302;28;20050;-81
2022/07/05 13:09:13;;;;;;;0.98;0.63;;;;;;;29.55;26.90;99325.16;5090535;28;20463;-79
2022/07/05 13:11:39;;;;;;;1.58;0.68;;;;;;;29.63;26.15;99310.47;5088228;28;20044;-79
2022/07/05 13:14:07;;;;;;;1.98;0.77;;;;;;;30.37;25.93;99322.78;5090974;28;20048;-79
2022/07/05 13:16:34;;;;;;;1.77;0.80;;;;;;;29.79;25.91;99304.56;5090037;28;20051;-79
2022/07/05 13:19:08;;;;;;;3.35;0.90;;;;;;;30.09;25.90;99322.78;5091821;28;20051;-78
2022/07/05 13:21:35;;;;;;;3.55;0.88;;;;;;;30.25;26.08;99311.25;5089047;28;20048;-79
2022/07/05 13:24:01;;;;;;;2.92;0.70;;;;;;;30.08;26.77;99311.88;5090761;28;20446;-79
2022/07/05 13:26:29;;;;;;;6.20;0.88;;;;;;;30.07;26.85;99318.63;5091973;28;20050;-79
2022/07/05 13:28:55;;;;;;;3.40;0.70;;;;;;;30.22;26.68;99307.09;5091527;28;20430;-79
2022/07/05 13:31:23;;;;;;;2.65;0.70;;;;;;;30.00;25.84;99305.88;5091623;28;20135;-80
2022/07/05 13:33:49;;;;;;;1.13;0.52;;;;;;;29.87;25.64;99317.06;5090637;28;20434;-79
2022/07/05 13:36:16;;;;;;;1.88;0.70;;;;;;;29.57;26.27;99296.84;5087814;28;20056;-78
2022/07/05 13:38:42;;;;;;;1.90;0.90;;;;;;;29.87;26.00;99311.44;5091034;28;20078;-79
2022/07/05 13:41:09;;;;;;;3.55;0.95;;;;;;;29.59;26.71;99319.78;5091657;28;20052;-79
2022/07/05 13:43:35;;;;;;;2.25;0.77;;;;;;;29.82;25.51;99306.78;5090236;28;20075;-79
2022/07/05 13:46:02;;;;;;;1.83;0.70;;;;;;;30.35;25.55;99308.22;5091543;28;20489;-79
2022/07/05 13:48:30;;;;;;;1.27;0.75;;;;;;;30.19;25.44;99314.16;5091075;28;20052;-80
2022/07/05 13:50:56;;;;;;;6.85;0.80;;;;;;;30.34;25.26;99306.56;5089611;28;20117;-80
2022/07/05 13:53:23;;;;;;;1.60;0.63;;;;;;;30.32;25.32;99306.91;5077599;28;20526;-80
2022/07/05 13:55:49;;;;;;;1.40;0.60;;;;;;;30.54;24.79;99302.53;5090929;28;20079;-80
2022/07/05 13:58:16;;;;;;;7.45;1.20;;;;;;;29.78;25.97;99309.34;5091207;28;20052;-80
2022/07/05 14:00:42;;;;;;;2.08;0.80;;;;;;;29.76;25.88;99307.97;5091043;28;20055;-80
2022/07/05 14:03:09;;;;;;;5.20;0.85;;;;;;;29.49;26.64;99309.59;5089611;28;20052;-79
2022/07/05 14:05:37;;;;;;;0.70;0.68;;;;;;;29.26;26.17;99308.59;5084125;28;20048;-80
2022/07/05 14:08:04;;;;;;;2.97;0.90;;;;;;;29.18;26.64;99318.50;5078375;28;20063;-79
2022/07/05 14:10:30;;;;;;;1.88;0.68;;;;;;;29.00;25.89;99306.19;5081645;28;20040;-79
2022/07/05 14:12:57;;;;;;;1.15;0.70;;;;;;;29.22;25.21;99315.94;5090117;28;20047;-79
2022/07/05 14:15:23;;;;;;;2.58;0.70;;;;;;;29.86;26.89;99318.22;5090730;28;20048;-80
2022/07/05 14:17:50;;;;;;;2.85;0.77;;;;;;;30.01;24.47;99313.13;5090904;28;20048;-79
2022/07/05 14:20:16;;;;;;;1.38;0.88;;;;;;;30.16;24.17;99313.97;5090199;28;20051;-79
2022/07/05 14:22:44;;;;;;;4.43;0.70;;;;;;;30.12;23.78;99312.91;5075775;28;20059;-80
2022/07/05 14:25:11;;;;;;;1.42;0.65;;;;;;;30.30;24.25;99303.56;5088222;28;20479;-80
2022/07/05 14:27:38;;;;;;;1.13;0.93;;;;;;;30.36;24.29;99310.72;5090534;28;20044;-80
2022/07/05 14:30:07;;;;;;;2.58;0.60;;;;;;;30.34;24.54;99300.97;5090791;28;20048;-80
2022/07/05 14:32:34;;;;;;;5.10;0.77;;;;;;;30.12;25.78;99298.91;5090070;28;20052;-79
2022/07/05 14:35:00;;;;;;;2.05;0.80;;;;;;;29.59;25.44;99288.97;5088626;28;20048;-78
2022/07/05 14:37:27;;;;;;;3.20;0.50;;;;;;;29.66;25.01;99295.00;5090131;28;20044;-79
2022/07/05 14:39:56;;;;;;;3.65;0.50;;;;;;;29.80;26.25;99289.41;5090601;28;20044;-79
2022/07/05 14:42:22;;;;;;;3.40;0.70;;;;;;;29.95;24.92;99286.34;5090375;28;20058;-80
2022/07/05 14:44:49;;;;;;;7.03;0.88;;;;;;;30.32;25.28;99276.06;5090456;28;20064;-79
2022/07/05 14:47:15;;;;;;;2.28;0.70;;;;;;;30.21;24.41;99285.81;5090760;28;20411;-80
2022/07/05 14:49:42;;;;;;;2.03;0.65;;;;;;;29.95;24.48;99283.53;5088139;28;20172;-79
2022/07/05 14:52:08;;;;;;;6.47;0.68;;;;;;;30.04;25.54;99280.03;5081348;28;20127;-79
2022/07/05 14:54:35;;;;;;;0.82;0.63;;;;;;;30.32;23.98;99262.03;5084143;28;20051;-79
2022/07/05 14:57:03;;;;;;;0.90;0.70;;;;;;;30.28;25.25;99275.00;5091429;28;20047;-79
2022/07/05 14:59:29;;;;;;;0.63;0.60;;;;;;;30.08;24.57;99275.44;5086536;28;20105;-79
2022/07/05 15:01:56;;;;;;;4.70;0.98;;;;;;;29.83;24.56;99272.84;5094606;28;20052;-79
2022/07/05 15:04:25;;;;;;;2.78;1.75;;;;;;;29.82;24.29;99273.16;5093033;28;20408;-80
2022/07/05 15:06:53;;;;;;;0.98;0.70;;;;;;;29.91;23.72;99268.47;5094631;28;20407;-79
2022/07/05 15:09:19;;;;;;;2.05;1.15;;;;;;;30.00;24.20;99262.97;5090370;28;20175;-79
2022/07/05 15:11:46;;;;;;;1.77;0.90;;;;;;;29.88;25.21;99268.28;5094230;28;20056;-79
2022/07/05 15:14:13;;;;;;;2.42;0.73;;;;;;;30.32;25.47;99272.41;5093828;28;20052;-78
2022/07/05 15:16:40;;;;;;;1.08;0.70;;;;;;;30.08;24.71;99261.41;5093970;28;20483;-80
2022/07/05 15:19:08;;;;;;;3.85;0.60;;;;;;;30.16;24.94;99267.13;5094360;28;20052;-79
2022/07/05 15:21:34;;;;;;;3.13;0.55;;;;;;;30.17;24.46;99256.72;5094009;28;20510;-79
2022/07/05 15:24:01;;;;;;;1.17;0.73;;;;;;;29.94;24.14;99256.66;5083766;28;20041;-79
2022/07/05 15:26:29;;;;;;;1.98;0.93;;;;;;;29.57;25.21;99263.22;5092526;28;20051;-79
2022/07/05 15:29:03;;;;;;;1.83;1.25;;;;;;;29.90;24.40;99260.38;5091153;28;20044;-79
2022/07/05 15:31:32;;;;;;;0.88;0.70;;;;;;;30.09;25.11;99244.28;5085598;28;20449;-79
2022/07/05 15:33:59;;;;;;;1.75;0.70;;;;;;;30.21;24.34;99248.53;5093347;28;20112;-79
2022/07/05 15:36:26;;;;;;;3.63;0.80;;;;;;;30.52;25.14;99251.53;5094001;28;20044;-78
2022/07/05 15:38:52;;;;;;;4.03;0.70;;;;;;;30.54;24.41;99250.03;5093939;28;20048;-79
2022/07/05 15:41:19;;;;;;;4.47;0.80;;;;;;;30.44;24.57;99229.81;5093612;28;20302;-79
2022/07/05 15:43:46;;;;;;;2.08;0.80;;;;;;;30.09;25.46;99244.28;5091755;28;20059;-79
2022/07/05 15:46:12;;;;;;;0.88;0.63;;;;;;;30.10;25.63;99234.75;5084055;28;20044;-78
2022/07/05 15:48:40;;;;;;;1.63;0.93;;;;;;;29.84;24.82;99245.66;5093483;28;20040;-78
2022/07/05 15:51:07;;;;;;;2.25;0.60;;;;;;;29.44;24.56;99231.28;5093684;28;20052;-79
2022/07/05 15:53:34;;;;;;;1.15;0.60;;;;;;;29.95;24.95;99235.91;5092695;28;20086;-79
2022/07/05 15:56:00;;;;;;;3.10;0.85;;;;;;;30.18;24.57;99238.78;5093363;28;20048;-79
2022/07/05 15:58:27;;;;;;;0.82;0.70;;;;;;;29.98;25.02;99245.66;5091445;28;20044;-79
2022/07/05 16:00:54;;;;;;;2.25;0.70;;;;;;;29.94;24.53;99241.81;5093484;28;20052;-79
2022/07/05 16:03:20;;;;;;;1.33;0.60;;;;;;;30.11;24.13;99239.22;5091939;28;20051;-79
2022/07/05 16:05:48;;;;;;;0.90;0.73;;;;;;;29.98;25.09;99234.44;5089026;28;20055;-78
2022/07/05 16:08:16;;;;;;;1.15;0.75;;;;;;;29.96;25.32;99236.72;5091091;28;20048;-79
2022/07/05 16:10:43;;;;;;;1.85;0.73;;;;;;;29.80;25.11;99239.00;5092896;28;20127;-79
2022/07/05 16:13:12;;;;;;;0.85;0.57;;;;;;;29.53;25.09;99243.44;5092575;28;20051;-79
2022/07/05 16:18:22;;;;;;;3.72;0.93;;;;;;;29.60;25.21;99221.44;5093418;28;20498;-79
2022/07/05 16:20:50;;;;;;;1.60;0.70;;;;;;;29.94;24.34;99225.00;5091148;28;20143;-79
2022/07/05 16:23:17;;;;;;;2.33;0.88;;;;;;;30.04;24.07;99222.00;5077156;28;20432;-79
2022/07/05 16:25:43;;;;;;;1.48;0.70;;;;;;;29.85;24.48;99226.88;5092367;28;20056;-79
2022/07/05 16:28:10;;;;;;;1.63;0.60;;;;;;;29.53;24.50;99234.22;5092723;28;20491;-79
2022/07/05 16:30:36;;;;;;;1.17;0.70;;;;;;;29.38;25.17;99224.13;5092876;28;20052;-79
2022/07/05 16:33:03;;;;;;;1.48;0.75;;;;;;;29.86;25.08;99229.38;5092149;28;20054;-79
2022/07/05 16:35:29;;;;;;;4.88;0.88;;;;;;;30.09;24.67;99233.06;5092750;28;20060;-79
2022/07/05 16:37:57;;;;;;;1.40;0.90;;;;;;;29.94;23.54;99225.81;5086861;28;20048;-80
2022/07/05 16:40:24;;;;;;;0.77;0.55;;;;;;;29.91;23.43;99229.25;5091363;28;20040;-80
2022/07/05 16:42:50;;;;;;;3.70;0.40;;;;;;;29.60;24.78;99221.44;5091443;28;20051;-79
2022/07/05 16:45:17;;;;;;;0.60;0.60;;;;;;;28.94;24.68;99220.66;5092763;28;20087;-79
2022/07/05 16:47:43;;;;;;;4.32;0.95;;;;;;;28.89;25.71;99224.38;5092377;28;20446;-79
2022/07/05 16:50:10;;;;;;;2.35;0.85;;;;;;;29.24;26.79;99201.72;5092675;28;20059;-79
2022/07/05 16:52:39;;;;;;;2.63;0.88;;;;;;;29.17;25.39;99201.25;5080610;28;20055;-80
2022/07/05 16:55:08;;;;;;;1.35;0.70;;;;;;;29.08;26.22;99217.91;5092186;28;20052;-78
2022/07/05 16:57:34;;;;;;;1.58;0.88;;;;;;;29.21;26.60;99221.91;5092197;28;20403;-79
2022/07/05 17:00:01;;;;;;;2.15;0.70;;;;;;;29.08;26.04;99218.72;5090303;28;20059;-78
2022/07/05 17:02:27;;;;;;;3.88;0.60;;;;;;;28.90;26.50;99208.41;5091364;28;20060;-77
2022/07/05 17:04:54;;;;;;;0.70;0.65;;;;;;;28.76;25.49;99208.38;5090344;28;20051;-78
2022/07/05 17:07:20;;;;;;;3.67;0.80;;;;;;;28.60;25.64;99231.00;5083517;28;20430;-79
2022/07/05 17:09:49;;;;;;;1.55;0.90;;;;;;;28.55;26.17;99238.59;5092162;28;20067;-78
2022/07/05 17:12:17;;;;;;;1.30;0.60;;;;;;;28.52;25.46;99231.63;5090552;28;20523;-78
2022/07/05 17:14:43;;;;;;;3.88;0.77;;;;;;;28.84;26.57;99221.66;5090828;28;20052;-78
2022/07/05 17:17:10;;;;;;;4.10;0.60;;;;;;;28.85;25.99;99230.91;5091558;28;20044;-78
2022/07/05 17:19:37;;;;;;;1.48;0.75;;;;;;;28.71;25.85;99236.41;5091028;28;20055;-79
2022/07/05 17:22:04;;;;;;;1.40;1.00;;;;;;;28.43;25.98;99225.88;5090985;28;20044;-79
2022/07/05 17:24:31;;;;;;;2.17;0.90;;;;;;;28.32;25.96;99237.50;5091692;28;20055;-79
2022/07/05 17:26:57;;;;;;;2.22;0.60;;;;;;;28.26;26.77;99233.97;5089986;28;20083;-79
2022/07/05 17:29:25;;;;;;;2.25;0.60;;;;;;;28.11;27.66;99232.22;5090187;28;20052;-80
2022/07/05 17:31:52;;;;;;;2.65;0.70;;;;;;;27.98;26.79;99225.38;5091484;28;20558;-80
2022/07/05 17:34:18;;;;;;;2.45;0.90;;;;;;;27.84;27.63;99230.84;5090971;28;20048;-79
2022/07/05 17:36:45;;;;;;;1.67;0.77;;;;;;;27.58;27.20;99219.16;5088430;28;20063;-79
2022/07/05 17:39:11;;;;;;;1.45;0.63;;;;;;;27.84;27.38;99233.63;5086882;28;20040;-79
2022/07/05 17:41:38;;;;;;;2.00;0.60;;;;;;;27.49;27.25;99226.50;5090229;28;20094;-79
2022/07/05 17:44:08;;;;;;;3.65;0.90;;;;;;;27.49;27.74;99229.28;5091688;28;20047;-78
2022/07/05 17:46:35;;;;;;;;;;;;;;;27.22;27.68;99232.59;5085166;28;20042;-79
2022/07/05 17:49:02;;;;;;;2.08;0.65;;;;;;;26.94;28.18;99229.50;5090723;28;19962;-78
2022/07/05 17:51:29;;;;;;;2.33;0.75;;;;;;;26.78;29.17;99240.81;5088461;28;20486;-78
2022/07/05 17:53:55;;;;;;;2.25;0.80;;;;;;;26.75;29.59;99243.31;5068172;28;20054;-80
2022/07/05 17:56:22;;;;;;;2.08;0.65;;;;;;;26.73;29.70;99248.38;5087359;28;20051;-80
2022/07/05 17:58:49;;;;;;;2.13;0.90;;;;;;;26.60;30.11;99249.81;5084149;28;20063;-80
2022/07/05 18:01:16;;;;;;;2.53;0.80;;;;;;;26.66;30.21;99246.75;5082931;28;20044;-79
2022/07/05 18:03:44;;;;;;;3.25;0.90;;;;;;;26.54;30.52;99225.88;5081242;28;20058;-79
2022/07/05 18:06:10;;;;;;;4.10;0.98;;;;;;;26.41;30.82;99238.50;5083388;28;23977;-79
2022/07/05 18:08:37;;;;;;;1.95;1.00;;;;;;;26.35;30.24;99245.25;5081327;28;20515;-79
2022/07/05 18:11:03;;;;;;;1.98;0.70;;;;;;;26.34;30.53;99238.00;5086979;28;20071;-79
2022/07/05 18:13:30;;;;;;;2.47;0.93;;;;;;;26.35;30.63;99245.25;5082435;28;20051;-80
2022/07/05 18:15:57;;;;;;;2.58;1.00;;;;;;;26.33;31.12;99251.06;5082789;28;20044;-79
2022/07/05 18:18:24;;;;;;;0.85;0.70;;;;;;;26.22;31.02;99252.25;5087249;28;20052;-80
2022/07/05 18:20:52;;;;;;;1.50;0.82;;;;;;;26.12;31.36;99251.19;5086976;28;20048;-79
2022/07/05 18:23:19;;;;;;;4.43;0.80;;;;;;;26.10;31.88;99253.41;5087046;28;20048;-79
2022/07/05 18:25:45;;;;;;;2.80;0.90;;;;;;;25.96;31.92;99244.00;5087954;28;20137;-79
2022/07/05 18:28:13;;;;;;;3.63;0.90;;;;;;;25.86;32.08;99249.59;5084529;28;20044;-79
2022/07/05 18:30:39;;;;;;;1.40;1.02;;;;;;;25.75;31.72;99246.84;5080024;28;20044;-79